sensor_id;sensor_type;location;lat;lon;timestamp;P1;durP1;ratioP1;P2;durP2;ratioP2
56712;SDS011;42589;45.536;9.032;2023-02-27T00:01:44;8.65;;;7.25;;
56712;SDS011;42589;45.536;9.032;2023-02-27T00:04:44;8.05;;;7.20;;
56712;SDS011;42589;45.536;9.032;2023-02-27T00:07:45;8.05;;;7.22;;
56712;SDS011;42589;45.536;9.032;2023-02-27T00:10:47;9.13;;;7.13;;
56712;SDS011;42589;45.536;9.032;2023-02-27T00:13:49;9.90;;;7.80;;
56712;SDS011;42589;45.536;9.032;2023-02-27T00:16:51;9.57;;;7.38;;
56712;SDS011;42589;45.536;9.032;2023-02-27T00:19:52;7.78;;;7.07;;
56712;SDS011;42589;45.536;9.032;2023-02-27T00:22:53;8.40;;;7.28;;
56712;SDS011;42589;45.536;9.032;2023-02-27T00:25:54;7.30;;;6.53;;
56712;SDS011;42589;45.536;9.032;2023-02-27T00:28:55;7.40;;;6.70;;
56712;SDS011;42589;45.536;9.032;2023-02-27T00:31:56;6.78;;;5.85;;
56712;SDS011;42589;45.536;9.032;2023-02-27T00:34:57;6.57;;;5.35;;
56712;SDS011;42589;45.536;9.032;2023-02-27T00:38:01;7.03;;;5.40;;
56712;SDS011;42589;45.536;9.032;2023-02-27T00:41:02;6.57;;;5.15;;
56712;SDS011;42589;45.536;9.032;2023-02-27T00:44:03;5.70;;;5.10;;
56712;SDS011;42589;45.536;9.032;2023-02-27T00:47:05;5.63;;;4.80;;
56712;SDS011;42589;45.536;9.032;2023-02-27T00:50:06;5.20;;;4.70;;
56712;SDS011;42589;45.536;9.032;2023-02-27T00:53:08;4.90;;;4.40;;
56712;SDS011;42589;45.536;9.032;2023-02-27T00:56:09;5.53;;;4.72;;
56712;SDS011;42589;45.536;9.032;2023-02-27T00:59:09;6.10;;;5.35;;
56712;SDS011;42589;45.536;9.032;2023-02-27T01:02:11;5.30;;;4.80;;
56712;SDS011;42589;45.536;9.032;2023-02-27T01:05:14;4.97;;;4.50;;
56712;SDS011;42589;45.536;9.032;2023-02-27T01:08:16;5.35;;;4.72;;
56712;SDS011;42589;45.536;9.032;2023-02-27T01:11:18;4.93;;;4.53;;
56712;SDS011;42589;45.536;9.032;2023-02-27T01:14:19;6.35;;;4.75;;
56712;SDS011;42589;45.536;9.032;2023-02-27T01:17:26;5.13;;;4.60;;
56712;SDS011;42589;45.536;9.032;2023-02-27T01:20:27;5.80;;;4.80;;
56712;SDS011;42589;45.536;9.032;2023-02-27T01:23:28;5.80;;;5.20;;
56712;SDS011;42589;45.536;9.032;2023-02-27T01:26:29;5.95;;;5.30;;
56712;SDS011;42589;45.536;9.032;2023-02-27T01:29:30;6.32;;;4.85;;
56712;SDS011;42589;45.536;9.032;2023-02-27T01:32:31;5.82;;;4.97;;
56712;SDS011;42589;45.536;9.032;2023-02-27T01:35:32;5.85;;;5.00;;
56712;SDS011;42589;45.536;9.032;2023-02-27T01:38:33;5.22;;;4.72;;
56712;SDS011;42589;45.536;9.032;2023-02-27T01:41:34;6.28;;;5.38;;
56712;SDS011;42589;45.536;9.032;2023-02-27T01:48:02;6.38;;;5.80;;
56712;SDS011;42589;45.536;9.032;2023-02-27T01:51:12;6.03;;;5.40;;
56712;SDS011;42589;45.536;9.032;2023-02-27T01:54:21;5.70;;;5.07;;
56712;SDS011;42589;45.536;9.032;2023-02-27T01:57:25;6.88;;;5.45;;
56712;SDS011;42589;45.536;9.032;2023-02-27T02:00:26;7.18;;;5.13;;
56712;SDS011;42589;45.536;9.032;2023-02-27T02:03:47;5.72;;;5.22;;
56712;SDS011;42589;45.536;9.032;2023-02-27T02:06:52;5.68;;;5.07;;
56712;SDS011;42589;45.536;9.032;2023-02-27T02:10:01;6.20;;;5.30;;
56712;SDS011;42589;45.536;9.032;2023-02-27T02:13:03;5.47;;;4.95;;
56712;SDS011;42589;45.536;9.032;2023-02-27T02:40:42;4.68;;;4.28;;
56712;SDS011;42589;45.536;9.032;2023-02-27T02:50:12;4.43;;;4.03;;
56712;SDS011;42589;45.536;9.032;2023-02-27T02:59:56;4.28;;;3.88;;
56712;SDS011;42589;45.536;9.032;2023-02-27T03:06:19;4.20;;;3.80;;
56712;SDS011;42589;45.536;9.032;2023-02-27T03:09:26;4.38;;;3.92;;
56712;SDS011;42589;45.536;9.032;2023-02-27T03:12:34;5.40;;;4.43;;
56712;SDS011;42589;45.536;9.032;2023-02-27T03:18:49;6.40;;;5.25;;
56712;SDS011;42589;45.536;9.032;2023-02-27T03:22:04;6.10;;;5.60;;
56712;SDS011;42589;45.536;9.032;2023-02-27T03:25:09;9.43;;;6.15;;
56712;SDS011;42589;45.536;9.032;2023-02-27T03:28:14;7.53;;;6.55;;
56712;SDS011;42589;45.536;9.032;2023-02-27T03:31:20;9.20;;;8.30;;
56712;SDS011;42589;45.536;9.032;2023-02-27T03:34:31;8.98;;;7.57;;
56712;SDS011;42589;45.536;9.032;2023-02-27T03:44:36;7.32;;;6.63;;
56712;SDS011;42589;45.536;9.032;2023-02-27T03:47:40;7.25;;;6.53;;
56712;SDS011;42589;45.536;9.032;2023-02-27T03:50:41;6.80;;;6.15;;
56712;SDS011;42589;45.536;9.032;2023-02-27T03:54:07;9.13;;;7.30;;
56712;SDS011;42589;45.536;9.032;2023-02-27T03:57:12;7.47;;;6.45;;
56712;SDS011;42589;45.536;9.032;2023-02-27T04:00:38;8.00;;;6.70;;
56712;SDS011;42589;45.536;9.032;2023-02-27T04:03:43;8.40;;;7.50;;
56712;SDS011;42589;45.536;9.032;2023-02-27T04:07:04;8.00;;;7.20;;
56712;SDS011;42589;45.536;9.032;2023-02-27T04:23:29;7.38;;;6.38;;
56712;SDS011;42589;45.536;9.032;2023-02-27T04:26:44;9.07;;;6.25;;
56712;SDS011;42589;45.536;9.032;2023-02-27T04:33:08;7.28;;;6.20;;
56712;SDS011;42589;45.536;9.032;2023-02-27T04:40:09;7.50;;;5.72;;
56712;SDS011;42589;45.536;9.032;2023-02-27T04:43:05;6.70;;;5.28;;
56712;SDS011;42589;45.536;9.032;2023-02-27T04:46:09;7.47;;;5.70;;
56712;SDS011;42589;45.536;9.032;2023-02-27T04:49:19;6.55;;;5.85;;
56712;SDS011;42589;45.536;9.032;2023-02-27T04:52:32;6.35;;;5.65;;
56712;SDS011;42589;45.536;9.032;2023-02-27T04:55:42;8.38;;;6.00;;
56712;SDS011;42589;45.536;9.032;2023-02-27T04:58:52;6.22;;;5.63;;
56712;SDS011;42589;45.536;9.032;2023-02-27T05:01:58;6.25;;;5.65;;
56712;SDS011;42589;45.536;9.032;2023-02-27T05:05:02;5.55;;;4.90;;
56712;SDS011;42589;45.536;9.032;2023-02-27T05:08:08;5.25;;;4.10;;
56712;SDS011;42589;45.536;9.032;2023-02-27T05:11:22;4.82;;;4.32;;
56712;SDS011;42589;45.536;9.032;2023-02-27T05:14:40;6.60;;;3.83;;
56712;SDS011;42589;45.536;9.032;2023-02-27T05:17:46;4.95;;;3.90;;
56712;SDS011;42589;45.536;9.032;2023-02-27T05:24:26;5.18;;;4.70;;
56712;SDS011;42589;45.536;9.032;2023-02-27T05:34:14;4.95;;;4.30;;
56712;SDS011;42589;45.536;9.032;2023-02-27T05:37:23;4.90;;;3.97;;
56712;SDS011;42589;45.536;9.032;2023-02-27T05:40:48;5.32;;;3.85;;
56712;SDS011;42589;45.536;9.032;2023-02-27T05:43:56;5.63;;;4.55;;
56712;SDS011;42589;45.536;9.032;2023-02-27T05:47:12;7.03;;;5.05;;
56712;SDS011;42589;45.536;9.032;2023-02-27T05:50:20;6.72;;;4.43;;
56712;SDS011;42589;45.536;9.032;2023-02-27T05:53:27;5.10;;;4.60;;
56712;SDS011;42589;45.536;9.032;2023-02-27T05:56:33;5.28;;;4.60;;
56712;SDS011;42589;45.536;9.032;2023-02-27T05:59:45;5.22;;;4.68;;
56712;SDS011;42589;45.536;9.032;2023-02-27T06:02:53;5.65;;;5.15;;
56712;SDS011;42589;45.536;9.032;2023-02-27T06:05:54;7.25;;;5.38;;
56712;SDS011;42589;45.536;9.032;2023-02-27T06:08:58;5.50;;;5.00;;
56712;SDS011;42589;45.536;9.032;2023-02-27T06:11:59;6.60;;;5.15;;
56712;SDS011;42589;45.536;9.032;2023-02-27T06:15:05;6.97;;;5.00;;
56712;SDS011;42589;45.536;9.032;2023-02-27T06:18:08;5.72;;;5.18;;
56712;SDS011;42589;45.536;9.032;2023-02-27T06:21:11;6.57;;;5.38;;
56712;SDS011;42589;45.536;9.032;2023-02-27T06:24:12;6.20;;;5.60;;
56712;SDS011;42589;45.536;9.032;2023-02-27T06:27:23;5.75;;;5.22;;
56712;SDS011;42589;45.536;9.032;2023-02-27T06:30:25;5.90;;;5.30;;
56712;SDS011;42589;45.536;9.032;2023-02-27T06:33:27;6.50;;;5.78;;
56712;SDS011;42589;45.536;9.032;2023-02-27T06:36:28;6.75;;;6.05;;
56712;SDS011;42589;45.536;9.032;2023-02-27T06:39:28;7.45;;;6.60;;
56712;SDS011;42589;45.536;9.032;2023-02-27T06:42:30;7.85;;;7.15;;
56712;SDS011;42589;45.536;9.032;2023-02-27T06:45:32;7.90;;;7.10;;
56712;SDS011;42589;45.536;9.032;2023-02-27T06:48:33;8.27;;;7.47;;
56712;SDS011;42589;45.536;9.032;2023-02-27T06:51:34;8.95;;;7.03;;
56712;SDS011;42589;45.536;9.032;2023-02-27T06:54:37;8.75;;;7.30;;
56712;SDS011;42589;45.536;9.032;2023-02-27T06:57:39;9.77;;;7.70;;
56712;SDS011;42589;45.536;9.032;2023-02-27T07:00:40;8.40;;;7.10;;
56712;SDS011;42589;45.536;9.032;2023-02-27T07:03:42;7.40;;;6.70;;
56712;SDS011;42589;45.536;9.032;2023-02-27T07:06:43;10.43;;;7.20;;
56712;SDS011;42589;45.536;9.032;2023-02-27T07:09:44;7.80;;;7.00;;
56712;SDS011;42589;45.536;9.032;2023-02-27T07:12:45;8.43;;;7.50;;
56712;SDS011;42589;45.536;9.032;2023-02-27T07:15:46;8.23;;;7.30;;
56712;SDS011;42589;45.536;9.032;2023-02-27T07:18:54;9.63;;;8.00;;
56712;SDS011;42589;45.536;9.032;2023-02-27T07:21:55;9.23;;;7.85;;
56712;SDS011;42589;45.536;9.032;2023-02-27T07:24:56;10.35;;;8.85;;
56712;SDS011;42589;45.536;9.032;2023-02-27T07:27:57;7.85;;;7.00;;
56712;SDS011;42589;45.536;9.032;2023-02-27T07:30:59;8.57;;;7.18;;
56712;SDS011;42589;45.536;9.032;2023-02-27T07:34:00;7.30;;;6.60;;
56712;SDS011;42589;45.536;9.032;2023-02-27T07:37:00;9.88;;;7.68;;
56712;SDS011;42589;45.536;9.032;2023-02-27T07:40:01;8.90;;;7.53;;
56712;SDS011;42589;45.536;9.032;2023-02-27T07:43:03;8.60;;;7.72;;
56712;SDS011;42589;45.536;9.032;2023-02-27T07:46:04;9.40;;;8.35;;
56712;SDS011;42589;45.536;9.032;2023-02-27T07:49:05;9.23;;;8.32;;
56712;SDS011;42589;45.536;9.032;2023-02-27T07:52:06;8.50;;;7.70;;
56712;SDS011;42589;45.536;9.032;2023-02-27T07:55:07;12.07;;;9.20;;
56712;SDS011;42589;45.536;9.032;2023-02-27T07:58:09;12.20;;;8.45;;
56712;SDS011;42589;45.536;9.032;2023-02-27T08:01:10;9.45;;;8.48;;
56712;SDS011;42589;45.536;9.032;2023-02-27T08:04:12;9.02;;;8.05;;
56712;SDS011;42589;45.536;9.032;2023-02-27T08:07:19;7.80;;;7.10;;
56712;SDS011;42589;45.536;9.032;2023-02-27T08:10:20;8.13;;;7.18;;
56712;SDS011;42589;45.536;9.032;2023-02-27T08:13:21;6.78;;;6.07;;
56712;SDS011;42589;45.536;9.032;2023-02-27T08:16:21;5.75;;;5.18;;
56712;SDS011;42589;45.536;9.032;2023-02-27T08:19:23;6.85;;;6.00;;
56712;SDS011;42589;45.536;9.032;2023-02-27T08:22:24;5.95;;;4.82;;
56712;SDS011;42589;45.536;9.032;2023-02-27T08:25:25;5.70;;;5.15;;
56712;SDS011;42589;45.536;9.032;2023-02-27T08:28:27;5.65;;;5.10;;
56712;SDS011;42589;45.536;9.032;2023-02-27T08:31:27;5.72;;;5.07;;
56712;SDS011;42589;45.536;9.032;2023-02-27T08:34:31;7.57;;;6.20;;
56712;SDS011;42589;45.536;9.032;2023-02-27T08:37:32;8.40;;;7.53;;
56712;SDS011;42589;45.536;9.032;2023-02-27T08:40:33;7.38;;;6.50;;
56712;SDS011;42589;45.536;9.032;2023-02-27T08:43:34;6.60;;;5.72;;
56712;SDS011;42589;45.536;9.032;2023-02-27T08:46:35;7.03;;;6.15;;
56712;SDS011;42589;45.536;9.032;2023-02-27T08:49:36;10.48;;;7.30;;
56712;SDS011;42589;45.536;9.032;2023-02-27T08:52:37;10.93;;;7.57;;
56712;SDS011;42589;45.536;9.032;2023-02-27T08:55:38;12.98;;;7.50;;
56712;SDS011;42589;45.536;9.032;2023-02-27T08:58:40;9.45;;;7.82;;
56712;SDS011;42589;45.536;9.032;2023-02-27T09:01:42;8.15;;;7.32;;
56712;SDS011;42589;45.536;9.032;2023-02-27T09:04:42;8.63;;;6.88;;
56712;SDS011;42589;45.536;9.032;2023-02-27T09:07:43;7.35;;;6.03;;
56712;SDS011;42589;45.536;9.032;2023-02-27T09:10:44;5.85;;;5.25;;
56712;SDS011;42589;45.536;9.032;2023-02-27T09:13:45;5.03;;;4.32;;
56712;SDS011;42589;45.536;9.032;2023-02-27T09:16:46;4.45;;;3.60;;
56712;SDS011;42589;45.536;9.032;2023-02-27T09:19:47;7.25;;;5.03;;
56712;SDS011;42589;45.536;9.032;2023-02-27T09:22:48;7.38;;;6.68;;
56712;SDS011;42589;45.536;9.032;2023-02-27T09:25:49;9.25;;;8.35;;
56712;SDS011;42589;45.536;9.032;2023-02-27T09:28:51;9.27;;;8.30;;
56712;SDS011;42589;45.536;9.032;2023-02-27T09:34:56;8.63;;;7.47;;
56712;SDS011;42589;45.536;9.032;2023-02-27T09:37:57;9.00;;;7.43;;
56712;SDS011;42589;45.536;9.032;2023-02-27T09:40:58;7.03;;;6.07;;
56712;SDS011;42589;45.536;9.032;2023-02-27T09:44:02;6.15;;;5.55;;
56712;SDS011;42589;45.536;9.032;2023-02-27T09:47:09;6.47;;;5.05;;
56712;SDS011;42589;45.536;9.032;2023-02-27T09:50:42;6.28;;;4.72;;
56712;SDS011;42589;45.536;9.032;2023-02-27T09:53:49;6.13;;;5.53;;
56712;SDS011;42589;45.536;9.032;2023-02-27T09:57:02;7.25;;;5.13;;
56712;SDS011;42589;45.536;9.032;2023-02-27T10:00:19;6.18;;;5.40;;
56712;SDS011;42589;45.536;9.032;2023-02-27T10:06:49;5.65;;;5.05;;
56712;SDS011;42589;45.536;9.032;2023-02-27T10:10:18;6.70;;;4.80;;
56712;SDS011;42589;45.536;9.032;2023-02-27T10:13:48;4.97;;;4.30;;
56712;SDS011;42589;45.536;9.032;2023-02-27T10:17:05;5.05;;;3.80;;
56712;SDS011;42589;45.536;9.032;2023-02-27T10:20:16;4.25;;;3.75;;
56712;SDS011;42589;45.536;9.032;2023-02-27T10:29:39;5.22;;;4.38;;
56712;SDS011;42589;45.536;9.032;2023-02-27T10:32:40;6.88;;;4.97;;
56712;SDS011;42589;45.536;9.032;2023-02-27T10:35:43;6.13;;;4.60;;
56712;SDS011;42589;45.536;9.032;2023-02-27T10:38:54;6.78;;;5.30;;
56712;SDS011;42589;45.536;9.032;2023-02-27T10:42:01;6.30;;;5.35;;
56712;SDS011;42589;45.536;9.032;2023-02-27T10:45:05;7.13;;;5.22;;
56712;SDS011;42589;45.536;9.032;2023-02-27T10:48:13;6.00;;;5.28;;
56712;SDS011;42589;45.536;9.032;2023-02-27T10:51:19;6.93;;;5.35;;
56712;SDS011;42589;45.536;9.032;2023-02-27T10:54:25;7.28;;;5.50;;
56712;SDS011;42589;45.536;9.032;2023-02-27T10:57:30;7.55;;;5.90;;
56712;SDS011;42589;45.536;9.032;2023-02-27T11:00:45;6.85;;;5.47;;
56712;SDS011;42589;45.536;9.032;2023-02-27T11:03:54;8.60;;;5.05;;
56712;SDS011;42589;45.536;9.032;2023-02-27T11:06:56;5.65;;;4.70;;
56712;SDS011;42589;45.536;9.032;2023-02-27T11:10:21;4.80;;;4.18;;
56712;SDS011;42589;45.536;9.032;2023-02-27T11:13:24;4.70;;;3.97;;
56712;SDS011;42589;45.536;9.032;2023-02-27T11:16:27;5.43;;;3.92;;
56712;SDS011;42589;45.536;9.032;2023-02-27T11:19:44;5.03;;;4.40;;
56712;SDS011;42589;45.536;9.032;2023-02-27T11:22:46;6.38;;;4.47;;
56712;SDS011;42589;45.536;9.032;2023-02-27T11:26:16;5.68;;;4.75;;
56712;SDS011;42589;45.536;9.032;2023-02-27T11:29:25;5.13;;;4.72;;
56712;SDS011;42589;45.536;9.032;2023-02-27T11:32:30;5.70;;;4.72;;
56712;SDS011;42589;45.536;9.032;2023-02-27T11:35:40;4.82;;;4.38;;
56712;SDS011;42589;45.536;9.032;2023-02-27T11:38:48;5.00;;;4.00;;
56712;SDS011;42589;45.536;9.032;2023-02-27T11:41:53;4.68;;;3.80;;
56712;SDS011;42589;45.536;9.032;2023-02-27T11:45:00;4.28;;;3.78;;
56712;SDS011;42589;45.536;9.032;2023-02-27T11:48:22;4.13;;;3.72;;
56712;SDS011;42589;45.536;9.032;2023-02-27T11:55:00;3.72;;;3.42;;
56712;SDS011;42589;45.536;9.032;2023-02-27T11:58:09;3.13;;;2.78;;
56712;SDS011;42589;45.536;9.032;2023-02-27T12:01:16;2.92;;;2.45;;
56712;SDS011;42589;45.536;9.032;2023-02-27T12:07:42;3.88;;;3.15;;
56712;SDS011;42589;45.536;9.032;2023-02-27T12:17:43;3.08;;;2.75;;
56712;SDS011;42589;45.536;9.032;2023-02-27T12:21:00;3.83;;;2.60;;
56712;SDS011;42589;45.536;9.032;2023-02-27T12:24:24;3.00;;;2.75;;
56712;SDS011;42589;45.536;9.032;2023-02-27T12:27:42;3.40;;;3.03;;
56712;SDS011;42589;45.536;9.032;2023-02-27T12:38:06;4.05;;;3.40;;
56712;SDS011;42589;45.536;9.032;2023-02-27T12:54:54;3.80;;;3.50;;
56712;SDS011;42589;45.536;9.032;2023-02-27T13:21:31;4.10;;;3.70;;
56712;SDS011;42589;45.536;9.032;2023-02-27T13:24:40;4.82;;;4.18;;
56712;SDS011;42589;45.536;9.032;2023-02-27T13:27:56;6.68;;;4.70;;
56712;SDS011;42589;45.536;9.032;2023-02-27T13:34:35;4.63;;;4.20;;
56712;SDS011;42589;45.536;9.032;2023-02-27T13:37:53;4.60;;;4.20;;
56712;SDS011;42589;45.536;9.032;2023-02-27T13:40:54;6.68;;;4.53;;
56712;SDS011;42589;45.536;9.032;2023-02-27T13:43:59;4.30;;;3.90;;
56712;SDS011;42589;45.536;9.032;2023-02-27T13:53:30;6.10;;;4.50;;
56712;SDS011;42589;45.536;9.032;2023-02-27T13:56:32;5.07;;;4.50;;
56712;SDS011;42589;45.536;9.032;2023-02-27T13:59:39;5.40;;;4.60;;
56712;SDS011;42589;45.536;9.032;2023-02-27T14:02:50;4.53;;;4.07;;
56712;SDS011;42589;45.536;9.032;2023-02-27T14:05:55;5.60;;;5.10;;
56712;SDS011;42589;45.536;9.032;2023-02-27T14:08:58;6.10;;;4.75;;
56712;SDS011;42589;45.536;9.032;2023-02-27T14:12:00;5.47;;;4.60;;
56712;SDS011;42589;45.536;9.032;2023-02-27T14:25:01;5.65;;;5.00;;
56712;SDS011;42589;45.536;9.032;2023-02-27T14:31:54;5.47;;;4.63;;
56712;SDS011;42589;45.536;9.032;2023-02-27T14:34:56;6.20;;;4.82;;
56712;SDS011;42589;45.536;9.032;2023-02-27T14:37:59;7.03;;;5.68;;
56712;SDS011;42589;45.536;9.032;2023-02-27T14:41:15;7.53;;;5.55;;
56712;SDS011;42589;45.536;9.032;2023-02-27T14:44:26;7.25;;;5.20;;
56712;SDS011;42589;45.536;9.032;2023-02-27T14:47:33;5.43;;;4.93;;
56712;SDS011;42589;45.536;9.032;2023-02-27T14:50:38;5.30;;;4.80;;
56712;SDS011;42589;45.536;9.032;2023-02-27T14:53:40;6.05;;;5.13;;
56712;SDS011;42589;45.536;9.032;2023-02-27T15:00:02;7.13;;;5.65;;
56712;SDS011;42589;45.536;9.032;2023-02-27T15:03:38;5.97;;;5.18;;
56712;SDS011;42589;45.536;9.032;2023-02-27T15:07:00;6.18;;;5.28;;
56712;SDS011;42589;45.536;9.032;2023-02-27T15:10:02;7.25;;;5.45;;
56712;SDS011;42589;45.536;9.032;2023-02-27T15:13:05;6.30;;;4.97;;
56712;SDS011;42589;45.536;9.032;2023-02-27T15:16:39;5.80;;;5.20;;
56712;SDS011;42589;45.536;9.032;2023-02-27T15:19:37;7.90;;;5.60;;
56712;SDS011;42589;45.536;9.032;2023-02-27T15:22:49;6.82;;;5.35;;
56712;SDS011;42589;45.536;9.032;2023-02-27T15:25:56;10.57;;;6.20;;
56712;SDS011;42589;45.536;9.032;2023-02-27T15:29:03;7.53;;;5.60;;
56712;SDS011;42589;45.536;9.032;2023-02-27T15:32:18;8.90;;;5.75;;
56712;SDS011;42589;45.536;9.032;2023-02-27T15:35:29;8.38;;;5.82;;
56712;SDS011;42589;45.536;9.032;2023-02-27T15:38:39;6.82;;;5.57;;
56712;SDS011;42589;45.536;9.032;2023-02-27T15:41:50;8.57;;;5.83;;
56712;SDS011;42589;45.536;9.032;2023-02-27T15:44:54;6.00;;;5.00;;
56712;SDS011;42589;45.536;9.032;2023-02-27T15:47:56;7.78;;;6.07;;
56712;SDS011;42589;45.536;9.032;2023-02-27T15:50:57;6.05;;;5.45;;
56712;SDS011;42589;45.536;9.032;2023-02-27T15:54:02;8.93;;;5.65;;
56712;SDS011;42589;45.536;9.032;2023-02-27T15:57:03;7.22;;;5.93;;
56712;SDS011;42589;45.536;9.032;2023-02-27T16:00:05;6.90;;;5.68;;
56712;SDS011;42589;45.536;9.032;2023-02-27T16:03:07;6.70;;;6.00;;
56712;SDS011;42589;45.536;9.032;2023-02-27T16:06:17;6.90;;;5.90;;
56712;SDS011;42589;45.536;9.032;2023-02-27T16:09:22;7.10;;;6.03;;
56712;SDS011;42589;45.536;9.032;2023-02-27T16:12:31;9.55;;;6.53;;
56712;SDS011;42589;45.536;9.032;2023-02-27T16:15:35;9.20;;;6.88;;
56712;SDS011;42589;45.536;9.032;2023-02-27T16:18:43;9.57;;;6.80;;
56712;SDS011;42589;45.536;9.032;2023-02-27T16:22:05;7.75;;;6.68;;
56712;SDS011;42589;45.536;9.032;2023-02-27T16:25:16;9.90;;;6.53;;
56712;SDS011;42589;45.536;9.032;2023-02-27T16:28:19;9.15;;;6.22;;
56712;SDS011;42589;45.536;9.032;2023-02-27T16:31:24;10.55;;;6.53;;
56712;SDS011;42589;45.536;9.032;2023-02-27T16:34:27;7.20;;;6.10;;
56712;SDS011;42589;45.536;9.032;2023-02-27T16:37:39;7.82;;;6.80;;
56712;SDS011;42589;45.536;9.032;2023-02-27T16:40:40;6.93;;;6.22;;
56712;SDS011;42589;45.536;9.032;2023-02-27T16:43:42;8.32;;;6.82;;
56712;SDS011;42589;45.536;9.032;2023-02-27T16:46:45;9.10;;;7.50;;
56712;SDS011;42589;45.536;9.032;2023-02-27T16:49:45;10.07;;;7.47;;
56712;SDS011;42589;45.536;9.032;2023-02-27T16:52:48;9.73;;;7.05;;
56712;SDS011;42589;45.536;9.032;2023-02-27T16:55:49;11.15;;;6.80;;
56712;SDS011;42589;45.536;9.032;2023-02-27T16:58:54;8.55;;;7.30;;
56712;SDS011;42589;45.536;9.032;2023-02-27T17:01:55;10.00;;;7.53;;
56712;SDS011;42589;45.536;9.032;2023-02-27T17:04:56;9.63;;;7.45;;
56712;SDS011;42589;45.536;9.032;2023-02-27T17:07:58;8.30;;;6.60;;
56712;SDS011;42589;45.536;9.032;2023-02-27T17:10:59;9.52;;;7.25;;
56712;SDS011;42589;45.536;9.032;2023-02-27T17:14:01;8.50;;;7.13;;
56712;SDS011;42589;45.536;9.032;2023-02-27T17:17:02;12.75;;;8.10;;
56712;SDS011;42589;45.536;9.032;2023-02-27T17:20:04;8.85;;;7.35;;
56712;SDS011;42589;45.536;9.032;2023-02-27T17:23:08;13.00;;;8.63;;
56712;SDS011;42589;45.536;9.032;2023-02-27T17:26:09;14.70;;;9.10;;
56712;SDS011;42589;45.536;9.032;2023-02-27T17:29:12;11.63;;;9.45;;
56712;SDS011;42589;45.536;9.032;2023-02-27T17:32:14;14.10;;;10.13;;
56712;SDS011;42589;45.536;9.032;2023-02-27T17:35:14;12.60;;;10.77;;
56712;SDS011;42589;45.536;9.032;2023-02-27T17:38:16;16.95;;;11.45;;
56712;SDS011;42589;45.536;9.032;2023-02-27T17:44:22;16.13;;;12.23;;
56712;SDS011;42589;45.536;9.032;2023-02-27T17:47:23;15.07;;;12.27;;
56712;SDS011;42589;45.536;9.032;2023-02-27T17:50:24;14.75;;;12.35;;
56712;SDS011;42589;45.536;9.032;2023-02-27T17:53:25;16.55;;;12.43;;
56712;SDS011;42589;45.536;9.032;2023-02-27T17:56:29;14.88;;;12.10;;
56712;SDS011;42589;45.536;9.032;2023-02-27T18:02:32;15.32;;;12.75;;
56712;SDS011;42589;45.536;9.032;2023-02-27T18:05:33;16.90;;;13.43;;
56712;SDS011;42589;45.536;9.032;2023-02-27T18:08:36;15.45;;;12.95;;
56712;SDS011;42589;45.536;9.032;2023-02-27T18:11:37;16.15;;;13.20;;
56712;SDS011;42589;45.536;9.032;2023-02-27T18:14:39;18.38;;;14.10;;
56712;SDS011;42589;45.536;9.032;2023-02-27T18:17:39;16.42;;;12.98;;
56712;SDS011;42589;45.536;9.032;2023-02-27T18:20:45;22.65;;;16.27;;
56712;SDS011;42589;45.536;9.032;2023-02-27T18:23:47;19.02;;;14.55;;
56712;SDS011;42589;45.536;9.032;2023-02-27T18:26:49;22.00;;;14.98;;
56712;SDS011;42589;45.536;9.032;2023-02-27T18:29:49;18.38;;;13.30;;
56712;SDS011;42589;45.536;9.032;2023-02-27T18:32:50;18.13;;;13.68;;
56712;SDS011;42589;45.536;9.032;2023-02-27T18:35:51;17.52;;;13.25;;
56712;SDS011;42589;45.536;9.032;2023-02-27T18:38:52;20.33;;;15.40;;
56712;SDS011;42589;45.536;9.032;2023-02-27T18:41:56;19.25;;;14.35;;
56712;SDS011;42589;45.536;9.032;2023-02-27T18:44:57;16.08;;;13.52;;
56712;SDS011;42589;45.536;9.032;2023-02-27T18:47:59;16.88;;;12.50;;
56712;SDS011;42589;45.536;9.032;2023-02-27T18:51:01;14.88;;;10.80;;
56712;SDS011;42589;45.536;9.032;2023-02-27T18:54:04;15.30;;;11.83;;
56712;SDS011;42589;45.536;9.032;2023-02-27T18:57:06;15.57;;;11.10;;
56712;SDS011;42589;45.536;9.032;2023-02-27T19:00:08;11.90;;;10.70;;
56712;SDS011;42589;45.536;9.032;2023-02-27T19:03:08;13.88;;;10.73;;
56712;SDS011;42589;45.536;9.032;2023-02-27T19:06:09;17.02;;;9.63;;
56712;SDS011;42589;45.536;9.032;2023-02-27T19:09:12;13.13;;;10.30;;
56712;SDS011;42589;45.536;9.032;2023-02-27T19:12:19;15.70;;;10.40;;
56712;SDS011;42589;45.536;9.032;2023-02-27T19:15:20;14.32;;;10.48;;
56712;SDS011;42589;45.536;9.032;2023-02-27T19:18:20;13.65;;;10.40;;
56712;SDS011;42589;45.536;9.032;2023-02-27T19:21:22;12.88;;;10.45;;
56712;SDS011;42589;45.536;9.032;2023-02-27T19:24:24;16.15;;;11.15;;
56712;SDS011;42589;45.536;9.032;2023-02-27T19:27:24;12.05;;;10.55;;
56712;SDS011;42589;45.536;9.032;2023-02-27T19:30:26;12.68;;;10.90;;
56712;SDS011;42589;45.536;9.032;2023-02-27T19:33:26;14.52;;;11.48;;
56712;SDS011;42589;45.536;9.032;2023-02-27T19:36:27;18.08;;;11.85;;
56712;SDS011;42589;45.536;9.032;2023-02-27T19:39:29;18.00;;;12.30;;
56712;SDS011;42589;45.536;9.032;2023-02-27T19:42:30;13.88;;;11.05;;
56712;SDS011;42589;45.536;9.032;2023-02-27T19:45:31;15.48;;;10.43;;
56712;SDS011;42589;45.536;9.032;2023-02-27T19:48:31;13.75;;;10.85;;
56712;SDS011;42589;45.536;9.032;2023-02-27T19:51:32;14.98;;;10.40;;
56712;SDS011;42589;45.536;9.032;2023-02-27T19:54:33;12.90;;;11.32;;
56712;SDS011;42589;45.536;9.032;2023-02-27T19:57:34;15.73;;;10.85;;
56712;SDS011;42589;45.536;9.032;2023-02-27T20:00:38;14.60;;;11.60;;
56712;SDS011;42589;45.536;9.032;2023-02-27T20:03:57;17.55;;;11.55;;
56712;SDS011;42589;45.536;9.032;2023-02-27T20:06:58;13.15;;;11.35;;
56712;SDS011;42589;45.536;9.032;2023-02-27T20:10:12;12.98;;;11.10;;
56712;SDS011;42589;45.536;9.032;2023-02-27T20:13:23;16.25;;;11.98;;
56712;SDS011;42589;45.536;9.032;2023-02-27T20:16:25;16.00;;;11.50;;
56712;SDS011;42589;45.536;9.032;2023-02-27T20:19:35;16.48;;;12.65;;
56712;SDS011;42589;45.536;9.032;2023-02-27T20:22:36;16.10;;;12.82;;
56712;SDS011;42589;45.536;9.032;2023-02-27T20:25:37;15.15;;;10.85;;
56712;SDS011;42589;45.536;9.032;2023-02-27T20:28:40;15.03;;;11.97;;
56712;SDS011;42589;45.536;9.032;2023-02-27T20:31:43;17.52;;;14.20;;
56712;SDS011;42589;45.536;9.032;2023-02-27T20:34:48;18.45;;;14.35;;
56712;SDS011;42589;45.536;9.032;2023-02-27T20:37:49;21.15;;;16.52;;
56712;SDS011;42589;45.536;9.032;2023-02-27T20:40:55;20.20;;;16.25;;
56712;SDS011;42589;45.536;9.032;2023-02-27T20:43:57;22.92;;;18.52;;
56712;SDS011;42589;45.536;9.032;2023-02-27T20:46:58;25.58;;;19.17;;
56712;SDS011;42589;45.536;9.032;2023-02-27T20:49:59;31.52;;;21.58;;
56712;SDS011;42589;45.536;9.032;2023-02-27T20:53:00;27.30;;;19.35;;
56712;SDS011;42589;45.536;9.032;2023-02-27T20:56:01;22.77;;;17.65;;
56712;SDS011;42589;45.536;9.032;2023-02-27T20:59:03;25.23;;;18.98;;
56712;SDS011;42589;45.536;9.032;2023-02-27T21:02:05;23.90;;;17.50;;
56712;SDS011;42589;45.536;9.032;2023-02-27T21:05:07;20.13;;;17.33;;
56712;SDS011;42589;45.536;9.032;2023-02-27T21:08:09;20.08;;;16.30;;
56712;SDS011;42589;45.536;9.032;2023-02-27T21:11:13;24.08;;;17.58;;
56712;SDS011;42589;45.536;9.032;2023-02-27T21:14:15;23.63;;;16.00;;
56712;SDS011;42589;45.536;9.032;2023-02-27T21:17:16;14.68;;;12.07;;
56712;SDS011;42589;45.536;9.032;2023-02-27T21:20:17;18.52;;;13.50;;
56712;SDS011;42589;45.536;9.032;2023-02-27T21:23:19;17.67;;;13.85;;
56712;SDS011;42589;45.536;9.032;2023-02-27T21:29:26;15.60;;;12.80;;
56712;SDS011;42589;45.536;9.032;2023-02-27T21:32:28;15.10;;;13.50;;
56712;SDS011;42589;45.536;9.032;2023-02-27T21:35:29;13.80;;;11.20;;
56712;SDS011;42589;45.536;9.032;2023-02-27T21:38:29;13.25;;;10.55;;